Aviation Digital Data Service (ADDS)

Output produced by METARs form (0844 UTC 24 September 2017)
found at http://aviationweather.gov/adds/metars/
 
KFRG 240753Z AUTO 00000KT 10SM CLR 18/17 A3004 RMK AO2 SLP171 T01780167
KISP 240756Z AUTO 32003KT 10SM CLR 18/17 A3003 RMK AO2 SLP168 T01780172
KISP 240520Z 2406/2506 VRB03KT P6SM SKC 
     FM241300 03006KT P6SM SKC 
     FM241800 16007KT P6SM SKC 
     FM242300 VRB03KT P6SM SKC
       
KJFK 240751Z 00000KT 10SM CLR 18/15 A3005 RMK AO2 SLP175 T01830150
KJFK 240520Z 2406/2512 VRB05KT P6SM SKC 
     FM241400 02007KT P6SM SKC 
     FM241700 17009KT P6SM SKC 
     FM250000 VRB03KT P6SM SKC
       
KBDR 240752Z AUTO 00000KT 10SM CLR 19/16 A3004 RMK AO2 SLP171 T01890156
KBDR 240520Z 2406/2506 VRB03KT P6SM SKC 
     FM241300 04006KT P6SM SKC 
     FM241600 17008KT P6SM SKC 
     FM242000 11008KT P6SM SKC 
     FM242300 VRB03KT P6SM SKC